Time;durP1;ratioP1;P1;durP2;ratioP2;P2;SDS_P1;SDS_P2;PMS_P1;PMS_P2;Temp;Humidity;BMP_temperature;BMP_pressure;BME280_temperature;BME280_humidity;BME280_pressure;Samples;Min_cycle;Max_cycle;Signal;HPM_P1;HPM_P2
2023/01/08 00:00:13;;;;;;;268.65;34.42;;;3.70;99.90;3.10;100189;;;;556879;252;35332;-83
2023/01/08 00:02:39;;;;;;;120.30;23.63;;;3.70;99.90;3.10;100189;;;;564095;251;24107;-81
2023/01/08 00:05:11;;;;;;;69.30;18.00;;;3.70;99.90;3.10;100183;;;;569383;251;24087;-81
2023/01/08 00:07:36;;;;;;;45.13;16.27;;;3.70;99.90;3.10;100179;;;;572422;249;24122;-81
2023/01/08 00:10:08;;;;;;;78.57;16.10;;;3.70;99.90;3.10;100164;;;;569192;251;24124;-82
2023/01/08 00:12:36;;;;;;;72.57;16.63;;;3.70;99.90;3.10;100180;;;;565035;250;24102;-81
2023/01/08 00:15:01;;;;;;;62.90;16.50;;;3.70;99.90;3.10;100175;;;;565640;251;24087;-83
2023/01/08 00:17:29;;;;;;;91.60;17.33;;;3.70;99.90;3.10;100176;;;;570608;251;24144;-84
2023/01/08 00:19:57;;;;;;;82.27;16.97;;;3.70;99.90;3.10;100167;;;;570454;251;25151;-82
2023/01/08 00:22:25;;;;;;;51.17;14.23;;;3.70;99.90;3.10;100165;;;;570368;251;24085;-82
2023/01/08 00:24:53;;;;;;;47.97;15.47;;;3.70;99.90;3.10;100170;;;;560254;250;24101;-85
2023/01/08 00:27:21;;;;;;;75.20;16.23;;;3.70;99.90;3.20;100158;;;;569976;251;24072;-84
2023/01/08 00:29:49;;;;;;;68.93;15.97;;;3.70;99.90;3.10;100163;;;;569876;251;24110;-84
2023/01/08 00:32:17;;;;;;;62.60;15.87;;;3.70;99.90;3.10;100163;;;;569558;251;24069;-86
2023/01/08 00:34:45;;;;;;;43.40;15.70;;;3.70;99.90;3.10;100157;;;;569654;251;24174;-86
2023/01/08 00:37:13;;;;;;;72.03;16.53;;;3.70;99.90;3.20;100166;;;;564702;251;24125;-85
2023/01/08 00:39:41;;;;;;;64.37;13.83;;;3.70;99.90;3.20;100161;;;;562557;251;24103;-86
2023/01/08 00:42:13;;;;;;;57.20;16.07;;;3.70;99.90;3.10;100160;;;;569648;251;24091;-81
2023/01/08 00:44:41;;;;;;;73.43;17.10;;;3.70;99.90;3.20;100164;;;;581123;247;24142;-86
2023/01/08 00:47:05;;;;;;;67.73;17.30;;;3.70;99.90;3.20;100155;;;;568625;251;24131;-86
2023/01/08 00:49:33;;;;;;;79.43;16.53;;;3.80;99.90;3.20;100164;;;;569368;251;24211;-87
2023/01/08 00:52:01;;;;;;;250.05;32.83;;;3.80;99.90;3.20;100155;;;;564527;251;35306;-87
2023/01/08 00:54:30;;;;;;;140.07;22.57;;;3.90;99.90;3.30;100161;;;;569753;251;24109;-87
2023/01/08 00:56:58;;;;;;;64.30;18.60;;;3.90;99.90;3.30;100160;;;;561868;252;24082;-87
2023/01/08 00:59:26;;;;;;;66.17;17.67;;;3.90;99.90;3.40;100158;;;;561709;251;24152;-82
2023/01/08 01:01:54;;;;;;;86.90;18.67;;;3.90;99.90;3.30;100172;;;;569362;252;24138;-82
2023/01/08 01:04:22;;;;;;;62.87;18.33;;;3.90;99.90;3.30;100159;;;;561758;251;24109;-81
2023/01/08 01:06:50;;;;;;;64.00;17.03;;;3.90;99.90;3.40;100162;;;;561656;252;24107;-80
2023/01/08 01:09:18;;;;;;;82.30;16.83;;;4.00;99.90;3.40;100164;;;;562309;250;24121;-82
2023/01/08 01:11:47;;;;;;;77.47;18.70;;;4.00;99.90;3.40;100153;;;;569432;251;24110;-81
2023/01/08 01:14:15;;;;;;;74.53;17.50;;;4.00;99.90;3.40;100157;;;;569571;251;24093;-82
2023/01/08 01:16:43;;;;;;;86.70;17.33;;;4.00;99.90;3.40;100151;;;;565208;251;24092;-86
2023/01/08 01:19:11;;;;;;;86.53;20.10;;;4.00;99.90;3.40;100145;;;;573503;250;24084;-82
2023/01/08 01:21:42;;;;;;;67.33;20.10;;;4.10;99.90;3.50;100133;;;;569424;251;24109;-82
2023/01/08 01:24:07;;;;;;;100.17;18.37;;;4.00;99.90;3.50;100145;;;;580986;245;24089;-81
2023/01/08 01:26:35;;;;;;;76.30;19.60;;;4.10;99.90;3.50;100132;;;;567386;251;24097;-86
2023/01/08 01:29:04;;;;;;;101.80;17.90;;;4.10;99.90;3.50;100123;;;;570644;251;24167;-80
2023/01/08 01:31:32;;;;;;;92.57;21.47;;;4.10;99.90;3.50;100127;;;;570434;251;24103;-81
2023/01/08 01:34:00;;;;;;;77.17;18.33;;;4.10;99.90;3.50;100122;;;;560683;251;24089;-82
2023/01/08 01:36:28;;;;;;;90.63;19.13;;;4.10;99.90;3.60;100118;;;;569691;251;24163;-85
2023/01/08 01:38:59;;;;;;;110.27;17.40;;;4.20;99.90;3.60;100109;;;;570235;251;24071;-82
2023/01/08 01:41:32;;;;;;;119.30;18.87;;;4.20;99.90;3.60;100099;;;;562432;252;25164;-82
2023/01/08 01:44:00;;;;;;;88.67;19.13;;;4.20;99.90;3.60;100098;;;;573775;250;24124;-84
2023/01/08 01:46:38;;;;;;;83.90;18.90;;;4.20;99.90;3.60;100090;;;;571487;247;24066;-85
2023/01/08 01:49:15;;;;;;;128.47;21.83;;;4.20;99.90;3.70;100088;;;;573378;249;25222;-84
2023/01/08 01:51:39;;;;;;;76.10;19.53;;;4.20;99.90;3.70;100085;;;;572062;243;24079;-81
2023/01/08 01:54:12;;;;;;;84.83;18.97;;;4.30;99.90;3.70;100079;;;;572545;247;24092;-81
2023/01/08 01:56:40;;;;;;;99.57;20.40;;;4.30;99.90;3.70;100080;;;;563877;251;24144;-82
2023/01/08 01:59:09;;;;;;;162.13;22.60;;;4.30;99.90;3.70;100069;;;;558916;252;24146;-80
2023/01/08 02:01:32;;;;;;;120.50;22.37;;;4.30;99.90;3.80;100078;;;;559643;251;24085;-83
2023/01/08 02:04:00;;;;;;;102.93;20.10;;;4.30;99.90;3.80;100070;;;;572165;248;24066;-81
2023/01/08 02:06:37;;;;;;;116.67;21.60;;;4.40;99.90;3.80;100073;;;;569465;251;24105;-79
2023/01/08 02:09:40;;;;;;;122.50;21.07;;;4.40;99.90;3.90;100078;;;;564481;251;24094;-82
2023/01/08 02:12:17;;;;;;;111.30;20.37;;;4.40;99.90;3.90;100078;;;;565080;250;24099;-83
2023/01/08 02:15:21;;;;;;;100.80;21.80;;;4.50;99.90;3.90;100086;;;;569130;252;24140;-84
2023/01/08 02:17:55;;;;;;;82.97;18.03;;;4.50;99.90;4.00;100094;;;;573189;250;24105;-84
2023/01/08 02:20:31;;;;;;;84.73;21.20;;;4.50;99.90;4.00;100085;;;;572613;248;25128;-85
2023/01/08 02:23:42;;;;;;;112.87;23.50;;;4.60;99.90;4.00;100089;;;;559785;251;24097;-84
2023/01/08 02:26:18;;;;;;;66.23;19.23;;;4.60;99.90;4.10;100080;;;;565194;251;24080;-84
2023/01/08 02:29:04;;;;;;;92.53;20.80;;;4.60;99.90;4.10;100070;;;;566105;251;24088;-82
2023/01/08 02:31:32;;;;;;;111.27;23.10;;;4.70;99.90;4.10;100074;;;;564810;251;24100;-84
2023/01/08 02:34:00;;;;;;;137.97;23.87;;;4.70;99.90;4.10;100074;;;;572336;248;24070;-81
2023/01/08 02:36:35;;;;;;;138.40;22.80;;;4.70;99.90;4.10;100068;;;;574389;248;24094;-82
2023/01/08 02:39:30;;;;;;;126.20;22.93;;;4.70;99.90;4.10;100056;;;;566283;251;24123;-82
2023/01/08 02:42:36;;;;;;;113.13;20.60;;;4.70;99.90;4.10;100060;;;;569973;251;24137;-82
2023/01/08 02:45:16;;;;;;;106.07;18.70;;;4.70;99.90;4.20;100051;;;;565840;251;24122;-84
2023/01/08 02:47:47;;;;;;;181.83;28.07;;;4.80;99.90;4.20;100042;;;;569757;251;24114;-82
2023/01/08 02:50:48;;;;;;;86.23;21.87;;;4.80;99.90;4.20;100049;;;;572293;249;24118;-82
2023/01/08 02:53:21;;;;;;;125.33;23.17;;;4.80;99.90;4.20;100051;;;;565687;251;24091;-80
2023/01/08 02:55:59;;;;;;;125.87;22.17;;;4.80;99.90;4.20;100046;;;;565149;250;24109;-81
2023/01/08 02:58:27;;;;;;;421.80;43.72;;;4.70;99.90;4.20;100046;;;;560438;251;35372;-80
2023/01/08 03:00:58;;;;;;;231.23;31.60;;;4.80;99.90;4.20;100048;;;;572536;247;24068;-80
2023/01/08 03:03:26;;;;;;;137.50;24.33;;;4.80;99.90;4.20;100041;;;;564516;251;24148;-80
2023/01/08 03:05:53;;;;;;;161.17;25.40;;;4.80;99.90;4.20;100046;;;;572225;247;24083;-81
2023/01/08 03:08:22;;;;;;;154.33;24.10;;;4.80;99.90;4.20;100037;;;;559333;252;24125;-81
2023/01/08 03:10:52;;;;;;;138.87;22.80;;;4.80;99.90;4.20;100045;;;;565351;250;24136;-83
2023/01/08 03:13:21;;;;;;;125.20;23.13;;;4.80;99.90;4.30;100044;;;;572500;248;24084;-82
2023/01/08 03:15:49;;;;;;;107.03;20.10;;;4.80;99.90;4.30;100045;;;;564572;251;24119;-79
2023/01/08 03:18:17;;;;;;;148.57;23.50;;;4.80;99.90;4.30;100042;;;;564668;250;25160;-79
2023/01/08 03:20:47;;;;;;;108.97;21.97;;;4.80;99.90;4.30;100038;;;;559294;252;24088;-83
2023/01/08 03:23:13;;;;;;;97.57;19.00;;;4.80;99.90;4.30;100043;;;;564550;251;24111;-80
2023/01/08 03:25:41;;;;;;;104.27;19.50;;;4.80;99.90;4.30;100034;;;;572215;248;24093;-80
2023/01/08 03:28:11;;;;;;;103.07;22.37;;;4.80;99.90;4.30;100041;;;;572511;248;24075;-82
2023/01/08 03:30:39;;;;;;;104.13;23.00;;;4.80;99.90;4.30;100033;;;;563334;251;24103;-79
2023/01/08 03:33:07;;;;;;;76.13;20.90;;;4.80;99.90;4.30;100036;;;;572351;248;24118;-83
2023/01/08 03:35:36;;;;;;;95.13;16.87;;;4.90;99.90;4.30;100026;;;;572323;248;24075;-80
2023/01/08 03:38:05;;;;;;;126.37;21.87;;;4.90;99.90;4.30;100023;;;;572281;248;24127;-81
2023/01/08 03:40:35;;;;;;;73.17;20.77;;;4.90;99.90;4.30;100034;;;;558867;252;24121;-82
2023/01/08 03:43:04;;;;;;;67.63;19.33;;;4.90;99.90;4.30;100032;;;;572552;251;24114;-80
2023/01/08 03:45:32;;;;;;;63.33;20.10;;;4.90;99.90;4.40;100025;;;;561873;252;24107;-82
2023/01/08 03:48:01;;;;;;;68.90;20.27;;;4.90;99.90;4.40;100026;;;;563048;250;24091;-80
2023/01/08 03:50:28;;;;;;;66.20;19.23;;;5.00;99.90;4.40;100031;;;;570939;247;24075;-81
2023/01/08 03:52:56;;;;;;;67.43;19.57;;;5.00;99.90;4.50;100029;;;;573700;250;24164;-83
2023/01/08 03:55:24;;;;;;;78.93;19.03;;;5.00;99.90;4.50;100023;;;;570113;251;24105;-81
2023/01/08 03:57:52;;;;;;;76.80;18.40;;;5.00;99.90;4.50;100024;;;;569946;251;24097;-80
2023/01/08 04:00:19;;;;;;;73.57;19.27;;;5.00;99.90;4.50;100025;;;;569919;251;24095;-83
2023/01/08 04:02:47;;;;;;;55.20;19.10;;;5.00;99.90;4.50;100034;;;;569482;251;24099;-82
2023/01/08 04:05:16;;;;;;;50.10;17.37;;;5.10;99.90;4.50;100032;;;;569771;251;24096;-81
2023/01/08 04:07:45;;;;;;;141.57;34.42;;;5.10;99.90;4.50;100032;;;;560511;251;35459;-84
2023/01/08 04:10:13;;;;;;;88.63;24.47;;;5.00;99.90;4.50;100036;;;;569601;251;24105;-83
2023/01/08 04:12:43;;;;;;;62.63;21.17;;;5.10;99.90;4.50;100017;;;;569521;251;24091;-84
2023/01/08 04:15:12;;;;;;;55.57;21.80;;;5.10;99.90;4.50;100017;;;;569644;251;24084;-85
2023/01/08 04:17:41;;;;;;;36.63;16.23;;;5.10;99.90;4.50;100017;;;;569543;251;24096;-82
2023/01/08 04:20:09;;;;;;;43.57;18.83;;;5.10;99.90;4.50;100019;;;;569630;251;24095;-82
2023/01/08 04:22:37;;;;;;;50.30;18.37;;;5.10;99.90;4.50;100008;;;;565112;251;24112;-84
2023/01/08 04:25:05;;;;;;;45.77;18.80;;;5.10;99.90;4.50;100003;;;;573567;250;24084;-82
2023/01/08 04:27:33;;;;;;;46.40;18.17;;;5.10;99.90;4.50;100005;;;;566443;251;24157;-83
2023/01/08 04:30:01;;;;;;;44.60;16.83;;;5.10;99.90;4.50;100012;;;;562068;252;24078;-84
2023/01/08 04:32:29;;;;;;;39.93;15.20;;;5.00;99.90;4.50;100011;;;;573085;251;24077;-80
2023/01/08 04:34:57;;;;;;;40.87;16.57;;;5.10;99.90;4.50;100007;;;;562106;252;24077;-82
2023/01/08 04:37:25;;;;;;;38.93;15.73;;;5.10;99.90;4.50;100002;;;;562466;250;24075;-83
2023/01/08 04:39:53;;;;;;;39.60;16.70;;;5.10;99.90;4.60;100000;;;;569704;251;24084;-79
2023/01/08 04:42:21;;;;;;;40.80;16.90;;;5.10;99.90;4.60;100003;;;;569755;251;24098;-80
2023/01/08 04:44:49;;;;;;;33.47;14.97;;;5.10;99.90;4.50;99989;;;;569741;251;24081;-79
2023/01/08 04:47:17;;;;;;;37.50;15.83;;;5.10;99.90;4.60;99987;;;;569708;251;24139;-84
2023/01/08 04:49:45;;;;;;;33.20;14.07;;;5.10;99.90;4.60;99985;;;;569673;251;24103;-82
2023/01/08 04:52:13;;;;;;;37.83;14.77;;;5.10;99.90;4.50;99974;;;;569648;251;24068;-82
2023/01/08 04:54:41;;;;;;;34.57;16.63;;;5.10;99.90;4.50;99970;;;;568747;251;24121;-83
2023/01/08 04:57:09;;;;;;;42.97;17.10;;;5.10;99.90;4.50;99976;;;;569378;251;24095;-84
2023/01/08 04:59:37;;;;;;;39.37;14.53;;;5.10;99.90;4.50;99975;;;;570273;250;24166;-83
2023/01/08 05:02:05;;;;;;;31.93;15.23;;;5.10;99.90;4.50;99983;;;;570581;251;24101;-82
2023/01/08 05:04:33;;;;;;;42.27;17.33;;;5.00;99.90;4.50;99989;;;;570225;251;24096;-79
2023/01/08 05:07:01;;;;;;;49.07;17.80;;;5.00;99.90;4.50;99990;;;;570337;251;24091;-82
2023/01/08 05:09:29;;;;;;;39.47;16.43;;;5.00;99.90;4.50;99988;;;;565295;251;24115;-83
2023/01/08 05:11:57;;;;;;;36.63;15.40;;;5.00;99.90;4.50;99971;;;;569806;251;24114;-82
2023/01/08 05:14:25;;;;;;;38.03;16.27;;;5.00;99.90;4.50;99958;;;;569890;251;24098;-80
2023/01/08 05:16:54;;;;;;;33.97;15.23;;;5.00;99.90;4.50;99941;;;;569723;251;24091;-84
2023/01/08 05:19:22;;;;;;;42.83;17.70;;;5.00;99.90;4.50;99930;;;;569659;251;24105;-82
2023/01/08 05:21:50;;;;;;;36.47;15.87;;;5.00;99.90;4.50;99925;;;;569572;251;24072;-83
2023/01/08 05:24:17;;;;;;;33.13;16.93;;;5.00;99.90;4.50;99924;;;;569963;251;24130;-80
2023/01/08 05:26:45;;;;;;;38.57;16.67;;;5.00;99.90;4.50;99926;;;;569638;251;24101;-84
2023/01/08 05:29:13;;;;;;;39.87;18.00;;;5.00;99.90;4.50;99925;;;;569963;251;24089;-84
2023/01/08 05:31:41;;;;;;;48.67;17.73;;;5.00;99.90;4.50;99934;;;;569954;251;24076;-83
2023/01/08 05:34:10;;;;;;;42.50;17.53;;;5.00;99.90;4.50;99932;;;;569937;251;24103;-84
2023/01/08 05:36:38;;;;;;;39.87;18.07;;;5.00;99.90;4.50;99928;;;;569796;251;24131;-83
2023/01/08 05:39:06;;;;;;;37.83;18.10;;;5.00;99.90;4.50;99911;;;;569793;251;24076;-82
2023/01/08 05:41:34;;;;;;;37.67;15.83;;;5.10;99.90;4.50;99910;;;;569772;251;24088;-79
2023/01/08 05:44:02;;;;;;;33.17;15.70;;;5.10;99.90;4.50;99905;;;;569739;251;24102;-80
2023/01/08 05:46:30;;;;;;;50.13;21.97;;;5.10;99.90;4.50;99904;;;;569704;251;25135;-82
2023/01/08 05:48:58;;;;;;;29.83;14.07;;;5.10;99.90;4.60;99892;;;;569778;251;24142;-81
2023/01/08 05:51:26;;;;;;;45.73;23.00;;;5.10;99.90;4.50;99873;;;;569755;251;24081;-83
2023/01/08 05:53:55;;;;;;;49.03;21.50;;;5.10;99.90;4.50;99869;;;;569751;251;24103;-84
2023/01/08 05:56:23;;;;;;;49.60;19.77;;;5.10;99.90;4.50;99866;;;;568835;251;24106;-84
2023/01/08 05:58:51;;;;;;;54.23;24.13;;;5.10;99.90;4.50;99873;;;;569241;251;24107;-81
2023/01/08 06:01:19;;;;;;;39.27;17.33;;;5.10;99.90;4.50;99863;;;;572415;248;24144;-85
2023/01/08 06:03:47;;;;;;;42.40;20.73;;;5.10;99.90;4.60;99882;;;;569351;251;24098;-84
2023/01/08 06:06:16;;;;;;;37.80;16.87;;;5.10;99.90;4.50;99886;;;;569547;251;24085;-84
2023/01/08 06:08:44;;;;;;;43.13;20.20;;;5.10;99.90;4.50;99886;;;;569375;249;24125;-84
2023/01/08 06:11:12;;;;;;;39.67;19.80;;;5.10;99.90;4.50;99874;;;;570446;250;24086;-86
2023/01/08 06:13:39;;;;;;;51.10;18.67;;;5.10;99.90;4.50;99860;;;;570454;251;24105;-84
2023/01/08 06:16:08;;;;;;;44.80;20.10;;;5.10;99.90;4.50;99853;;;;573205;247;24077;-84
2023/01/08 06:18:36;;;;;;;46.87;17.43;;;5.10;99.90;4.50;99851;;;;565703;251;24145;-82
2023/01/08 06:21:04;;;;;;;50.03;21.77;;;5.10;99.90;4.50;99832;;;;569380;251;24099;-83
2023/01/08 06:23:32;;;;;;;45.07;19.47;;;5.10;99.90;4.50;99836;;;;570229;251;24092;-83
2023/01/08 06:26:00;;;;;;;37.13;16.37;;;5.10;99.90;4.40;99833;;;;572846;247;24075;-83
2023/01/08 06:28:28;;;;;;;39.47;18.27;;;5.00;99.90;4.40;99831;;;;573051;247;24062;-84
2023/01/08 06:31:05;;;;;;;40.30;20.17;;;5.00;99.90;4.40;99830;;;;569956;251;24095;-83
2023/01/08 06:33:29;;;;;;;50.97;22.77;;;5.00;99.90;4.40;99838;;;;572359;247;24085;-81
2023/01/08 06:36:03;;;;;;;37.03;18.13;;;5.00;99.90;4.40;99845;;;;572842;247;25119;-84
2023/01/08 06:38:33;;;;;;;36.07;15.33;;;5.00;99.90;4.50;99840;;;;565517;251;24106;-85
2023/01/08 06:40:59;;;;;;;55.83;23.77;;;5.00;99.90;4.50;99833;;;;572424;247;24072;-85
2023/01/08 06:43:27;;;;;;;38.13;18.63;;;5.00;99.90;4.40;99826;;;;572913;247;24084;-85
2023/01/08 06:45:58;;;;;;;49.07;21.20;;;5.00;99.90;4.40;99832;;;;569948;251;24077;-84
2023/01/08 06:48:23;;;;;;;47.60;22.03;;;5.00;99.90;4.40;99825;;;;564766;251;24103;-85
2023/01/08 06:50:51;;;;;;;52.73;23.07;;;5.00;99.90;4.40;99832;;;;569182;251;24093;-85
2023/01/08 06:53:19;;;;;;;41.30;20.27;;;5.00;99.90;4.40;99837;;;;569651;251;24077;-85
2023/01/08 06:55:47;;;;;;;46.00;20.93;;;5.00;99.90;4.40;99840;;;;565220;251;24137;-84
2023/01/08 06:58:15;;;;;;;40.00;18.70;;;5.00;99.90;4.40;99835;;;;569179;251;24093;-86
2023/01/08 07:00:44;;;;;;;52.40;20.37;;;5.00;99.90;4.40;99847;;;;566172;251;24109;-83
2023/01/08 07:03:12;;;;;;;47.60;22.67;;;5.00;99.90;4.40;99843;;;;569677;251;24094;-86
2023/01/08 07:05:40;;;;;;;49.13;20.30;;;5.00;99.90;4.40;99834;;;;569188;251;25153;-84
2023/01/08 07:08:17;;;;;;;46.70;19.43;;;5.00;99.90;4.40;99837;;;;569540;249;24111;-85
2023/01/08 07:10:44;;;;;;;53.80;22.07;;;5.00;99.90;4.40;99842;;;;571977;248;24073;-84
2023/01/08 07:13:09;;;;;;;39.47;18.27;;;5.00;99.90;4.40;99841;;;;572093;248;24100;-83
2023/01/08 07:15:37;;;;;;;40.43;19.77;;;5.00;99.90;4.40;99846;;;;573766;250;24148;-82
2023/01/08 07:18:08;;;;;;;45.70;19.53;;;5.00;99.90;4.40;99853;;;;562457;251;24084;-80
2023/01/08 07:20:36;;;;;;;48.63;21.47;;;5.00;99.90;4.40;99839;;;;572149;248;24123;-82
2023/01/08 07:23:04;;;;;;;52.83;20.60;;;5.00;99.90;4.40;99838;;;;568375;251;24109;-81
2023/01/08 07:25:31;;;;;;;38.57;17.07;;;5.00;99.90;4.40;99829;;;;578898;247;24137;-82
2023/01/08 07:27:59;;;;;;;40.77;18.33;;;5.00;99.90;4.40;99824;;;;570488;251;25132;-82
2023/01/08 07:30:27;;;;;;;30.27;16.73;;;5.00;99.90;4.40;99830;;;;566473;251;25156;-84
2023/01/08 07:32:58;;;;;;;41.63;19.87;;;5.00;99.90;4.40;99832;;;;565694;251;24090;-84
2023/01/08 07:35:26;;;;;;;29.07;16.13;;;5.00;99.90;4.40;99827;;;;564852;251;24084;-80
2023/01/08 07:37:54;;;;;;;47.73;20.23;;;5.00;99.90;4.40;99843;;;;569782;251;25134;-80
2023/01/08 07:40:22;;;;;;;47.57;20.67;;;5.00;99.90;4.40;99837;;;;569765;251;24070;-80
2023/01/08 07:42:59;;;;;;;35.90;18.93;;;5.00;99.90;4.40;99844;;;;569535;251;24100;-81
2023/01/08 07:45:27;;;;;;;41.20;19.23;;;5.00;99.90;4.40;99831;;;;560020;248;24097;-78
2023/01/08 07:47:59;;;;;;;72.55;34.50;;;5.00;99.90;4.40;99837;;;;573118;247;35199;-80
2023/01/08 07:50:27;;;;;;;52.20;27.67;;;5.00;99.90;4.40;99839;;;;578284;247;24063;-81
2023/01/08 07:52:58;;;;;;;37.63;18.53;;;5.00;99.90;4.40;99830;;;;573140;250;24103;-79
2023/01/08 07:55:26;;;;;;;44.43;22.43;;;5.00;99.90;4.40;99826;;;;565323;251;24098;-82
2023/01/08 07:57:54;;;;;;;30.37;14.77;;;5.00;99.90;4.40;99835;;;;572421;248;24074;-80
2023/01/08 08:00:21;;;;;;;39.77;19.07;;;5.00;99.90;4.40;99832;;;;573186;248;24088;-85
2023/01/08 08:02:50;;;;;;;39.57;20.97;;;5.00;99.90;4.40;99830;;;;569816;251;24090;-82
2023/01/08 08:05:18;;;;;;;39.27;20.93;;;5.00;99.90;4.40;99829;;;;569993;251;24087;-82
2023/01/08 08:07:46;;;;;;;44.80;21.53;;;5.00;99.90;4.40;99826;;;;570127;249;24118;-80
2023/01/08 08:10:14;;;;;;;42.83;22.07;;;5.00;99.90;4.40;99826;;;;569206;251;24108;-82
2023/01/08 08:12:43;;;;;;;44.80;21.30;;;5.00;99.90;4.40;99829;;;;569356;251;24153;-84
2023/01/08 08:15:10;;;;;;;43.20;21.13;;;4.90;99.90;4.40;99834;;;;571894;248;24075;-85
2023/01/08 08:17:38;;;;;;;41.17;22.83;;;5.00;99.90;4.40;99826;;;;565696;251;24097;-84
2023/01/08 08:20:10;;;;;;;39.57;20.47;;;5.00;99.90;4.40;99825;;;;569440;251;24099;-85
2023/01/08 08:22:34;;;;;;;35.40;17.13;;;5.00;99.90;4.40;99830;;;;565179;251;24142;-85
2023/01/08 08:25:03;;;;;;;36.83;19.57;;;5.00;99.90;4.40;99826;;;;569472;251;24090;-85
2023/01/08 08:27:31;;;;;;;35.50;19.77;;;5.00;99.90;4.50;99831;;;;569366;251;24117;-85
2023/01/08 08:29:59;;;;;;;34.10;18.37;;;5.00;99.90;4.40;99809;;;;569719;251;24096;-83
2023/01/08 08:32:27;;;;;;;29.93;14.77;;;5.00;99.90;4.40;99797;;;;569655;251;24102;-83
2023/01/08 08:34:55;;;;;;;31.73;19.00;;;5.00;99.90;4.40;99787;;;;570469;250;24090;-80
2023/01/08 08:37:23;;;;;;;35.63;20.57;;;5.00;99.90;4.40;99787;;;;571095;251;24079;-84
2023/01/08 08:39:50;;;;;;;36.60;20.17;;;5.00;99.90;4.40;99790;;;;570412;252;24084;-84
2023/01/08 08:42:22;;;;;;;42.37;20.10;;;5.00;99.90;4.40;99800;;;;562835;251;24091;-84
2023/01/08 08:44:46;;;;;;;39.03;20.33;;;5.00;99.90;4.40;99790;;;;569490;251;24106;-84
2023/01/08 08:47:14;;;;;;;40.63;19.67;;;5.00;99.90;4.50;99788;;;;570179;251;24092;-83
2023/01/08 08:49:42;;;;;;;37.13;19.50;;;5.00;99.90;4.50;99790;;;;569665;251;24080;-85
2023/01/08 08:52:11;;;;;;;42.83;22.00;;;5.00;99.90;4.40;99784;;;;570041;251;24092;-82
2023/01/08 08:54:40;;;;;;;42.07;20.30;;;5.00;99.90;4.40;99780;;;;569938;251;24254;-80
2023/01/08 08:57:07;;;;;;;31.07;17.60;;;5.00;99.90;4.40;99789;;;;566413;250;24083;-81
2023/01/08 08:59:34;;;;;;;28.63;14.47;;;5.00;99.90;4.40;99769;;;;572359;247;24067;-83
2023/01/08 09:02:02;;;;;;;31.73;16.70;;;5.00;99.90;4.40;99768;;;;564706;251;24092;-83
2023/01/08 09:04:30;;;;;;;35.63;18.50;;;5.00;99.90;4.40;99775;;;;569526;251;25141;-82
2023/01/08 09:07:02;;;;;;;35.70;18.80;;;5.00;99.90;4.50;99775;;;;572630;247;24084;-83
2023/01/08 09:09:26;;;;;;;36.53;18.27;;;5.00;99.90;4.50;99774;;;;572832;247;24106;-83
2023/01/08 09:11:54;;;;;;;37.50;19.20;;;5.10;99.90;4.50;99773;;;;573295;250;24128;-82
2023/01/08 09:14:23;;;;;;;31.80;18.53;;;5.10;99.90;4.50;99775;;;;569312;251;24121;-82
2023/01/08 09:16:54;;;;;;;37.70;19.40;;;5.10;99.90;4.60;99781;;;;569260;251;24163;-81
2023/01/08 09:19:18;;;;;;;40.20;20.27;;;5.10;99.90;4.50;99764;;;;568855;251;24114;-82
2023/01/08 09:21:46;;;;;;;26.33;14.27;;;5.10;99.90;4.60;99771;;;;568794;251;24120;-82
2023/01/08 09:24:15;;;;;;;41.37;17.70;;;5.20;99.90;4.60;99773;;;;569475;251;24123;-84
2023/01/08 09:26:43;;;;;;;39.97;19.40;;;5.10;99.90;4.60;99772;;;;569399;251;24087;-81
2023/01/08 09:29:11;;;;;;;37.13;18.87;;;5.20;99.90;4.60;99774;;;;568853;251;24099;-81
2023/01/08 09:31:39;;;;;;;37.63;18.67;;;5.20;99.90;4.60;99767;;;;569759;251;24090;-81
2023/01/08 09:34:11;;;;;;;48.38;28.98;;;5.20;99.90;4.60;99768;;;;564793;251;35351;-83
2023/01/08 09:36:35;;;;;;;46.63;30.03;;;5.10;99.90;4.60;99765;;;;575639;247;35106;-84
2023/01/08 09:39:03;;;;;;;35.60;19.63;;;5.20;99.90;4.60;99756;;;;569801;251;24072;-79
2023/01/08 09:41:32;;;;;;;38.47;21.20;;;5.20;99.90;4.60;99757;;;;569814;251;24096;-81
2023/01/08 09:44:00;;;;;;;39.90;19.43;;;5.20;99.90;4.60;99746;;;;572709;248;24069;-80
2023/01/08 09:46:28;;;;;;;34.17;17.87;;;5.20;99.90;4.60;99755;;;;573895;247;24134;-80
2023/01/08 09:48:58;;;;;;;32.40;17.63;;;5.20;99.90;4.60;99742;;;;573737;247;24061;-80
2023/01/08 09:51:35;;;;;;;34.13;16.37;;;5.20;99.90;4.60;99751;;;;573017;246;24051;-80
2023/01/08 09:54:03;;;;;;;33.37;14.87;;;5.20;99.90;4.60;99745;;;;570781;251;24097;-82
2023/01/08 09:56:32;;;;;;;23.40;14.83;;;5.20;99.90;4.70;99745;;;;573108;247;24096;-81
2023/01/08 09:58:59;;;;;;;30.10;16.00;;;5.20;99.90;4.70;99735;;;;573249;247;24137;-81
2023/01/08 10:01:30;;;;;;;31.13;16.50;;;5.20;99.90;4.60;99735;;;;573244;247;24073;-80
2023/01/08 10:04:16;;;;;;;28.43;16.07;;;5.20;99.90;4.60;99724;;;;580925;247;25382;-82
2023/01/08 10:06:56;;;;;;;32.43;15.30;;;5.20;99.90;4.60;99724;;;;565478;251;24106;-81
2023/01/08 10:09:29;;;;;;;30.57;15.63;;;5.20;99.90;4.50;99719;;;;564744;251;24119;-83
2023/01/08 10:12:00;;;;;;;20.53;12.13;;;5.20;99.90;4.50;99715;;;;572318;247;24063;-81
2023/01/08 10:14:29;;;;;;;29.70;15.47;;;5.10;99.90;4.50;99727;;;;572473;247;24061;-85
2023/01/08 10:17:21;;;;;;;33.83;16.97;;;5.10;99.90;4.50;99712;;;;571406;247;24167;-81
2023/01/08 10:19:49;;;;;;;34.10;15.13;;;5.10;99.90;4.50;99714;;;;566220;251;24090;-81
2023/01/08 10:22:21;;;;;;;29.63;12.93;;;5.10;99.90;4.50;99710;;;;569357;251;24133;-79
2023/01/08 10:24:51;;;;;;;26.30;14.30;;;5.10;99.90;4.50;99699;;;;564867;251;24114;-80
2023/01/08 10:27:19;;;;;;;29.07;15.40;;;5.10;99.90;4.50;99712;;;;580452;247;24114;-81
2023/01/08 10:29:47;;;;;;;30.60;17.17;;;5.10;99.90;4.50;99694;;;;564288;250;24105;-81
2023/01/08 10:32:22;;;;;;;26.67;14.73;;;5.00;99.90;4.50;99701;;;;572844;247;24061;-81
2023/01/08 10:34:48;;;;;;;28.17;14.63;;;5.10;99.90;4.50;99697;;;;559953;251;24121;-83
2023/01/08 10:37:28;;;;;;;29.93;15.03;;;5.10;99.90;4.50;99699;;;;565481;251;24092;-85
2023/01/08 10:39:56;;;;;;;32.03;16.30;;;5.10;99.90;4.60;99682;;;;569884;251;25121;-82
2023/01/08 10:42:24;;;;;;;36.90;18.20;;;5.10;99.90;4.60;99673;;;;558911;251;24326;-85
2023/01/08 10:45:03;;;;;;;22.93;12.23;;;5.20;99.90;4.60;99673;;;;573387;250;24101;-84
2023/01/08 10:47:32;;;;;;;30.33;16.70;;;5.10;99.90;4.50;99675;;;;573788;250;24104;-85
2023/01/08 10:50:01;;;;;;;23.27;13.13;;;5.10;99.90;4.50;99664;;;;572139;248;24090;-81
2023/01/08 10:52:36;;;;;;;30.87;16.20;;;5.10;99.90;4.50;99660;;;;572632;248;24102;-84
2023/01/08 10:55:27;;;;;;;23.10;12.20;;;5.10;99.90;4.50;99652;;;;569985;245;24079;-84
2023/01/08 10:58:01;;;;;;;31.30;14.03;;;5.10;99.90;4.50;99639;;;;573941;246;24082;-81
2023/01/08 11:00:31;;;;;;;23.87;12.47;;;5.10;99.90;4.50;99641;;;;566138;251;24087;-80
2023/01/08 11:03:02;;;;;;;31.80;14.63;;;5.10;99.90;4.50;99640;;;;565851;251;24099;-81
2023/01/08 11:05:33;;;;;;;30.37;15.13;;;5.10;99.90;4.50;99650;;;;581193;247;24130;-83
2023/01/08 11:08:02;;;;;;;21.17;11.33;;;5.10;99.90;4.50;99642;;;;564460;251;24126;-79
2023/01/08 11:10:32;;;;;;;27.70;14.20;;;5.10;99.90;4.50;99648;;;;572863;247;24149;-79
2023/01/08 11:12:57;;;;;;;39.03;17.60;;;5.10;99.90;4.50;99638;;;;568332;251;24126;-81
2023/01/08 11:15:34;;;;;;;25.60;14.10;;;5.10;99.90;4.60;99644;;;;572548;247;24099;-80
2023/01/08 11:18:16;;;;;;;37.00;16.83;;;5.20;99.90;4.60;99642;;;;565018;251;24099;-81
2023/01/08 11:20:44;;;;;;;37.37;16.37;;;5.20;99.90;4.60;99642;;;;564739;251;24143;-84
2023/01/08 11:23:15;;;;;;;33.23;16.53;;;5.20;99.90;4.60;99638;;;;577552;247;24081;-84